createdAt,value
2023-03-27T00:02:11.732Z,3.08
2023-03-27T00:07:14.071Z,2.83
2023-03-27T00:12:16.162Z,3.25
2023-03-27T00:17:19.386Z,2.75
2023-03-27T00:22:21.427Z,4.60
2023-03-27T00:27:25.172Z,4.00
2023-03-27T00:32:27.456Z,2.45
2023-03-27T00:37:29.560Z,3.40
2023-03-27T00:42:31.818Z,3.65
2023-03-27T00:47:37.215Z,2.83
2023-03-27T00:52:42.696Z,3.83
2023-03-27T00:57:49.873Z,3.50
2023-03-27T01:02:52.230Z,1.95
2023-03-27T01:08:01.341Z,2.50
2023-03-27T01:13:30.375Z,3.22
2023-03-27T01:18:48.528Z,3.72
2023-03-27T01:24:09.187Z,2.58
2023-03-27T01:29:41.232Z,4.45
2023-03-27T01:35:02.115Z,4.45
2023-03-27T01:40:15.080Z,3.50
2023-03-27T01:45:25.359Z,4.32
2023-03-27T01:50:34.264Z,3.17
2023-03-27T01:55:40.820Z,2.92
2023-03-27T02:00:51.326Z,2.92
2023-03-27T02:06:21.804Z,3.60
2023-03-27T02:11:30.483Z,6.00
2023-03-27T02:16:35.905Z,4.07
2023-03-27T02:21:39.916Z,3.00
2023-03-27T02:26:42.620Z,2.83
2023-03-27T02:32:10.422Z,2.42
2023-03-27T02:37:16.353Z,4.18
2023-03-27T02:42:58.014Z,3.45
2023-03-27T02:48:19.043Z,6.72
2023-03-27T02:53:25.329Z,3.08
2023-03-27T02:58:57.218Z,3.60
2023-03-27T03:04:26.329Z,4.05
2023-03-27T03:09:48.874Z,3.53
2023-03-27T03:14:51.460Z,2.85
2023-03-27T03:19:53.771Z,3.15
2023-03-27T03:24:55.804Z,3.80
2023-03-27T03:30:02.175Z,3.53
2023-03-27T03:35:09.823Z,4.15
2023-03-27T03:40:12.996Z,3.70
2023-03-27T03:45:20.485Z,3.70
2023-03-27T03:50:22.695Z,3.42
2023-03-27T03:55:25.793Z,3.47
2023-03-27T04:00:28.521Z,5.30
2023-03-27T04:05:32.922Z,5.03
2023-03-27T04:10:38.332Z,4.28
2023-03-27T04:15:45.533Z,3.50
2023-03-27T04:20:58.662Z,3.17
2023-03-27T04:31:26.278Z,4.97
2023-03-27T04:36:52.113Z,3.37
2023-03-27T04:41:59.081Z,5.07
2023-03-27T04:47:03.971Z,3.45
2023-03-27T04:52:07.445Z,5.05
2023-03-27T04:57:10.044Z,5.18
2023-03-27T05:02:12.977Z,4.22
2023-03-27T05:07:24.379Z,3.28
2023-03-27T05:12:27.048Z,2.92
2023-03-27T05:17:36.957Z,3.45
2023-03-27T05:22:39.417Z,2.53
2023-03-27T05:27:54.201Z,2.95
2023-03-27T05:32:59.399Z,3.75
2023-03-27T05:38:06.586Z,2.80
2023-03-27T05:43:10.616Z,2.50
2023-03-27T05:48:13.820Z,2.38
2023-03-27T05:53:17.509Z,2.15
2023-03-27T05:58:36.023Z,3.30
2023-03-27T06:03:38.871Z,5.70
2023-03-27T06:08:48.893Z,5.60
2023-03-27T06:13:51.170Z,6.45
2023-03-27T06:18:59.037Z,4.60
2023-03-27T06:24:02.220Z,4.20
2023-03-27T06:29:08.037Z,6.22
2023-03-27T06:34:15.114Z,10.55
2023-03-27T06:39:29.563Z,4.60
2023-03-27T06:44:32.768Z,9.02
2023-03-27T06:49:40.924Z,18.35
2023-03-27T06:54:51.342Z,18.50
2023-03-27T06:59:53.721Z,12.48
2023-03-27T07:05:04.707Z,7.03
2023-03-27T07:10:12.319Z,5.22
2023-03-27T07:15:15.447Z,3.72
2023-03-27T07:20:17.695Z,4.70
2023-03-27T07:25:19.954Z,2.92
2023-03-27T07:30:22.315Z,3.20
2023-03-27T07:35:25.885Z,2.67
2023-03-27T07:40:49.993Z,4.82
2023-03-27T07:46:15.535Z,3.75
2023-03-27T07:51:18.387Z,3.03
2023-03-27T07:56:23.460Z,3.78
2023-03-27T08:01:41.960Z,5.93
2023-03-27T08:06:44.177Z,4.40
2023-03-27T08:11:54.195Z,3.85
2023-03-27T08:17:05.187Z,4.78
2023-03-27T08:22:15.812Z,4.10
2023-03-27T08:27:40.671Z,3.92
2023-03-27T08:32:44.034Z,3.95
2023-03-27T08:37:46.780Z,4.18
2023-03-27T08:43:17.702Z,5.40
2023-03-27T08:48:27.578Z,5.68
2023-03-27T08:53:36.487Z,8.40
2023-03-27T08:58:41.704Z,11.85
2023-03-27T09:04:17.875Z,10.35
2023-03-27T09:09:44.985Z,10.35
2023-03-27T09:15:00.506Z,10.13
2023-03-27T09:20:07.076Z,10.05
2023-03-27T09:25:21.141Z,5.85
2023-03-27T09:30:42.360Z,8.82
2023-03-27T09:35:59.228Z,3.40
2023-03-27T09:41:07.297Z,7.00
2023-03-27T09:46:17.523Z,8.50
2023-03-27T09:51:42.679Z,9.80
2023-03-27T09:57:12.733Z,5.22
2023-03-27T10:02:21.149Z,4.97
2023-03-27T10:07:25.044Z,9.57
2023-03-27T10:12:42.582Z,8.02
2023-03-27T10:17:49.298Z,7.05
2023-03-27T10:23:01.693Z,8.65
2023-03-27T10:28:49.082Z,5.93
2023-03-27T10:33:54.609Z,8.63
2023-03-27T10:39:17.487Z,9.20
2023-03-27T10:44:54.561Z,8.77
2023-03-27T10:50:12.975Z,6.57
2023-03-27T10:55:54.495Z,6.60
2023-03-27T11:01:26.477Z,6.00
2023-03-27T11:06:41.769Z,5.93
2023-03-27T11:11:58.414Z,4.97
2023-03-27T11:17:04.822Z,4.00
2023-03-27T11:22:19.674Z,5.82
2023-03-27T11:28:00.546Z,5.28
2023-03-27T11:33:09.818Z,7.00
2023-03-27T11:38:18.286Z,5.65
2023-03-27T11:43:22.955Z,6.28
2023-03-27T11:48:42.777Z,7.53
2023-03-27T11:53:57.188Z,4.55
2023-03-27T11:59:24.287Z,5.38
2023-03-27T12:04:44.648Z,5.18
2023-03-27T12:10:25.369Z,7.57
2023-03-27T12:16:11.097Z,3.67
2023-03-27T12:21:33.078Z,4.63
2023-03-27T12:27:06.725Z,2.97
2023-03-27T12:32:40.725Z,6.18
2023-03-27T12:37:50.995Z,4.32
2023-03-27T12:43:03.016Z,3.30
2023-03-27T12:48:11.366Z,4.05
2023-03-27T12:53:27.278Z,2.85
2023-03-27T12:58:38.371Z,5.40
2023-03-27T13:04:07.302Z,3.22
2023-03-27T13:09:42.426Z,5.95
2023-03-27T13:15:17.515Z,5.40
2023-03-27T13:25:54.811Z,3.30
2023-03-27T13:31:07.382Z,6.03
2023-03-27T13:36:24.781Z,6.93
2023-03-27T13:41:49.164Z,3.90
2023-03-27T13:47:28.660Z,5.10
2023-03-27T13:52:39.904Z,4.20
2023-03-27T13:57:48.737Z,3.85
2023-03-27T14:03:21.595Z,4.68
2023-03-27T14:08:39.258Z,5.40
2023-03-27T14:14:23.091Z,3.15
2023-03-27T14:20:07.803Z,3.97
2023-03-27T14:25:17.089Z,6.00
2023-03-27T14:30:27.842Z,7.75
2023-03-27T14:35:57.060Z,6.47
2023-03-27T14:41:03.401Z,5.55
2023-03-27T14:46:22.851Z,7.68
2023-03-27T14:51:37.369Z,8.15
2023-03-27T14:56:48.208Z,5.70
2023-03-27T15:02:31.831Z,7.43
2023-03-27T15:07:38.905Z,4.90
2023-03-27T15:12:49.262Z,7.22
2023-03-27T15:17:56.076Z,9.80
2023-03-27T15:28:26.045Z,12.20
2023-03-27T15:33:37.511Z,10.48
2023-03-27T15:38:41.157Z,8.77
2023-03-27T15:43:44.076Z,10.07
2023-03-27T15:48:51.357Z,9.00
2023-03-27T15:53:55.855Z,7.95
2023-03-27T15:59:04.947Z,8.65
2023-03-27T16:04:16.536Z,7.25
2023-03-27T16:09:25.665Z,7.72
2023-03-27T16:14:36.893Z,9.80
2023-03-27T16:20:12.669Z,9.73
2023-03-27T16:25:14.876Z,7.87
2023-03-27T16:30:32.745Z,9.15
2023-03-27T16:35:34.938Z,11.48
2023-03-27T16:40:37.148Z,8.52
2023-03-27T16:45:39.775Z,6.13
2023-03-27T16:50:41.939Z,6.97
2023-03-27T16:55:44.794Z,4.45
2023-03-27T17:00:46.968Z,8.38
2023-03-27T17:05:49.181Z,5.25
2023-03-27T17:10:51.269Z,5.18
2023-03-27T17:15:53.551Z,4.85
2023-03-27T17:20:55.674Z,6.03
2023-03-27T17:26:03.460Z,4.72
2023-03-27T17:31:06.153Z,3.13
2023-03-27T17:36:10.010Z,4.97
2023-03-27T17:41:14.530Z,2.13
2023-03-27T17:46:16.760Z,4.20
2023-03-27T17:51:18.846Z,3.60
2023-03-27T17:56:21.022Z,4.60
2023-03-27T18:01:24.245Z,6.75
2023-03-27T18:06:26.429Z,5.97
2023-03-27T18:11:29.631Z,3.60
2023-03-27T18:16:31.760Z,6.18
2023-03-27T18:21:35.839Z,4.68
2023-03-27T18:26:37.984Z,5.82
2023-03-27T18:31:40.329Z,3.13
2023-03-27T18:36:42.637Z,3.42
2023-03-27T18:41:44.717Z,5.20
2023-03-27T18:46:47.003Z,2.88
2023-03-27T18:51:49.264Z,5.10
2023-03-27T18:56:52.136Z,3.03
2023-03-27T19:01:54.311Z,3.47
2023-03-27T19:06:57.003Z,3.90
2023-03-27T19:12:00.684Z,3.90
2023-03-27T19:17:21.415Z,6.18
2023-03-27T19:22:41.816Z,9.13
2023-03-27T19:27:59.265Z,8.63
2023-03-27T19:33:02.471Z,9.07
2023-03-27T19:38:04.738Z,7.68
2023-03-27T19:43:06.806Z,8.25
2023-03-27T19:48:08.993Z,5.63
2023-03-27T19:53:11.390Z,5.97
2023-03-27T19:58:13.539Z,5.57
2023-03-27T20:03:19.479Z,4.38
2023-03-27T20:08:22.873Z,5.78
2023-03-27T20:13:25.021Z,6.68
2023-03-27T20:18:32.557Z,9.88
2023-03-27T20:23:37.596Z,7.53
2023-03-27T20:28:40.856Z,7.78
2023-03-27T20:33:43.027Z,12.07
2023-03-27T20:38:46.484Z,19.13
2023-03-27T20:43:50.976Z,12.70
2023-03-27T20:48:54.737Z,8.73
2023-03-27T20:53:58.137Z,9.93
2023-03-27T20:59:00.511Z,6.97
2023-03-27T21:04:02.606Z,7.13
2023-03-27T21:09:05.961Z,9.00
2023-03-27T21:14:08.143Z,10.15
2023-03-27T21:19:11.977Z,9.55
2023-03-27T21:24:15.953Z,10.37
2023-03-27T21:29:18.395Z,7.15
2023-03-27T21:34:20.510Z,15.07
2023-03-27T21:39:22.660Z,16.20
2023-03-27T21:44:24.798Z,15.68
2023-03-27T21:49:27.031Z,8.68
2023-03-27T21:54:29.134Z,6.43
2023-03-27T21:59:31.259Z,8.52
2023-03-27T22:04:36.541Z,7.32
2023-03-27T22:09:38.604Z,7.60
2023-03-27T22:14:40.886Z,10.38
2023-03-27T22:19:43.072Z,15.32
2023-03-27T22:24:45.368Z,7.10
2023-03-27T22:29:47.493Z,6.82
2023-03-27T22:34:50.088Z,5.25
2023-03-27T22:39:52.471Z,6.15
2023-03-27T22:44:54.538Z,12.05
2023-03-27T22:49:56.728Z,13.15
2023-03-27T22:54:58.833Z,9.32
2023-03-27T23:00:00.873Z,8.00
2023-03-27T23:05:04.212Z,7.28
2023-03-27T23:10:07.079Z,8.68
2023-03-27T23:15:09.701Z,9.30
2023-03-27T23:20:11.762Z,8.98
2023-03-27T23:25:14.158Z,6.10
2023-03-27T23:30:16.329Z,5.78
2023-03-27T23:35:18.556Z,6.30
2023-03-27T23:40:20.749Z,8.57
2023-03-27T23:45:22.783Z,5.95
2023-03-27T23:50:24.957Z,8.13
2023-03-27T23:55:26.973Z,7.80
